createdAt,value
2018-07-09T00:01:07.593Z,3.67
2018-07-09T00:06:10.681Z,3.60
2018-07-09T00:11:13.656Z,2.30
2018-07-09T00:16:16.708Z,2.33
2018-07-09T00:21:19.751Z,2.57
2018-07-09T00:26:22.791Z,4.10
2018-07-09T00:31:25.837Z,3.43
2018-07-09T00:36:28.865Z,6.67
2018-07-09T00:41:31.919Z,2.83
2018-07-09T00:46:34.954Z,3.77
2018-07-09T00:51:37.998Z,3.50
2018-07-09T00:56:41.040Z,4.83
2018-07-09T01:01:44.133Z,4.23
2018-07-09T01:06:47.172Z,3.60
2018-07-09T01:12:00.177Z,3.40
2018-07-09T01:17:03.224Z,5.63
2018-07-09T01:22:06.661Z,3.60
2018-07-09T01:27:09.697Z,5.07
2018-07-09T01:32:12.754Z,5.40
2018-07-09T01:37:15.788Z,4.67
2018-07-09T01:42:18.825Z,4.60
2018-07-09T01:47:21.865Z,3.30
2018-07-09T01:52:24.917Z,4.10
2018-07-09T01:57:27.957Z,3.60
2018-07-09T02:02:30.993Z,4.03
2018-07-09T02:07:34.054Z,5.00
2018-07-09T02:12:37.097Z,7.50
2018-07-09T02:17:40.161Z,3.97
2018-07-09T02:22:43.213Z,3.77
2018-07-09T02:27:46.248Z,3.80
2018-07-09T02:32:49.297Z,4.80
2018-07-09T02:37:52.344Z,4.93
2018-07-09T02:42:55.381Z,7.57
2018-07-09T02:47:58.623Z,4.60
2018-07-09T02:53:01.685Z,7.20
2018-07-09T02:58:04.776Z,6.90
2018-07-09T03:03:07.926Z,5.60
2018-07-09T03:08:10.978Z,5.57
2018-07-09T03:13:14.026Z,5.60
2018-07-09T03:18:17.061Z,9.17
2018-07-09T03:23:20.121Z,7.73
2018-07-09T03:28:23.180Z,5.77
2018-07-09T03:33:26.222Z,5.97
2018-07-09T03:38:29.269Z,28.43
2018-07-09T03:43:32.337Z,12.87
2018-07-09T03:48:35.378Z,8.73
2018-07-09T03:53:38.425Z,9.23
2018-07-09T03:58:41.478Z,9.93
2018-07-09T04:03:44.521Z,23.87
2018-07-09T04:08:47.569Z,25.13
2018-07-09T04:13:50.628Z,19.33
2018-07-09T04:18:53.757Z,16.03
2018-07-09T04:23:56.824Z,7.50
2018-07-09T04:28:59.868Z,12.07
2018-07-09T04:34:02.993Z,10.43
2018-07-09T04:39:06.817Z,8.63
2018-07-09T04:44:09.871Z,10.43
2018-07-09T04:49:12.960Z,10.23
2018-07-09T04:54:16.014Z,8.90
2018-07-09T04:59:19.053Z,9.93
2018-07-09T05:04:22.139Z,11.87
2018-07-09T05:09:25.154Z,12.17
2018-07-09T05:14:28.200Z,12.83
2018-07-09T05:19:31.271Z,9.47
2018-07-09T05:24:34.329Z,13.20
2018-07-09T05:29:37.477Z,11.07
2018-07-09T05:34:40.697Z,13.10
2018-07-09T05:39:44.210Z,10.50
2018-07-09T05:44:47.256Z,11.27
2018-07-09T05:49:50.877Z,12.73
2018-07-09T05:54:53.928Z,13.20
2018-07-09T05:59:56.984Z,8.57
2018-07-09T06:05:00.037Z,8.80
2018-07-09T06:10:03.159Z,10.13
2018-07-09T06:15:06.220Z,8.83
2018-07-09T06:20:09.257Z,10.67
2018-07-09T06:25:12.323Z,8.17
2018-07-09T06:30:15.381Z,7.90
2018-07-09T06:35:18.966Z,9.40
2018-07-09T06:40:22.014Z,11.27
2018-07-09T06:45:25.049Z,8.63
2018-07-09T06:50:28.113Z,8.23
2018-07-09T06:55:31.157Z,10.73
2018-07-09T07:00:34.229Z,9.67
2018-07-09T07:05:37.269Z,9.50
2018-07-09T07:10:40.321Z,7.23
2018-07-09T07:15:43.377Z,10.57
2018-07-09T07:20:46.423Z,8.83
2018-07-09T07:25:49.464Z,4.73
2018-07-09T07:30:52.498Z,6.07
2018-07-09T07:35:55.561Z,5.70
2018-07-09T07:40:58.597Z,4.63
2018-07-09T07:46:01.681Z,5.57
2018-07-09T07:51:04.847Z,4.53
2018-07-09T07:56:07.921Z,3.63
2018-07-09T08:01:10.957Z,4.03
2018-07-09T08:06:14.000Z,8.07
2018-07-09T08:11:17.037Z,5.90
2018-07-09T08:16:20.081Z,6.33
2018-07-09T08:21:23.122Z,6.17
2018-07-09T08:26:26.177Z,5.30
2018-07-09T08:31:29.269Z,2.70
2018-07-09T08:36:32.286Z,6.93
2018-07-09T08:41:35.334Z,4.67
2018-07-09T08:46:38.377Z,3.03
2018-07-09T08:51:41.430Z,4.40
2018-07-09T08:56:44.509Z,2.60
2018-07-09T09:01:47.544Z,4.27
2018-07-09T09:06:50.592Z,3.13
2018-07-09T09:11:53.633Z,3.00
2018-07-09T09:16:56.689Z,4.50
2018-07-09T09:21:59.817Z,5.90
2018-07-09T09:27:02.915Z,4.90
2018-07-09T09:32:05.957Z,4.70
2018-07-09T09:37:09.225Z,7.40
2018-07-09T09:42:12.264Z,4.00
2018-07-09T09:47:15.317Z,5.53
2018-07-09T09:52:18.662Z,5.93
2018-07-09T09:57:21.710Z,4.53
2018-07-09T10:02:24.753Z,4.17
2018-07-09T10:07:27.796Z,3.77
2018-07-09T10:12:30.837Z,6.17
2018-07-09T10:17:33.897Z,3.50
2018-07-09T10:22:36.941Z,4.90
2018-07-09T10:27:39.978Z,3.33
2018-07-09T10:32:43.013Z,3.20
2018-07-09T10:37:46.046Z,4.40
2018-07-09T10:42:49.099Z,6.13
2018-07-09T10:47:52.137Z,4.23
2018-07-09T10:52:55.185Z,3.93
2018-07-09T10:57:58.220Z,2.93
2018-07-09T11:03:01.310Z,2.60
2018-07-09T11:08:04.360Z,4.37
2018-07-09T11:13:07.461Z,5.43
2018-07-09T11:18:10.517Z,6.27
2018-07-09T11:23:13.662Z,5.13
2018-07-09T11:28:16.708Z,3.77
2018-07-09T11:33:19.746Z,8.33
2018-07-09T11:38:22.793Z,5.60
2018-07-09T11:43:25.845Z,3.73
2018-07-09T11:48:28.889Z,4.00
2018-07-09T11:53:32.760Z,5.67
2018-07-09T11:58:35.814Z,6.97
2018-07-09T12:03:38.841Z,8.33
2018-07-09T12:08:41.889Z,4.60
2018-07-09T12:13:44.997Z,4.77
2018-07-09T12:18:48.034Z,4.83
2018-07-09T12:23:51.079Z,5.97
2018-07-09T12:28:54.147Z,5.13
2018-07-09T12:33:57.185Z,5.10
2018-07-09T12:39:00.236Z,4.90
2018-07-09T12:44:03.326Z,5.33
2018-07-09T12:49:06.356Z,4.67
2018-07-09T12:54:09.405Z,4.03
2018-07-09T12:59:12.509Z,4.17
2018-07-09T13:04:16.671Z,4.33
2018-07-09T13:09:19.705Z,5.53
2018-07-09T13:14:22.792Z,4.97
2018-07-09T13:19:25.814Z,5.50
2018-07-09T13:24:28.877Z,3.63
2018-07-09T13:29:31.912Z,6.37
2018-07-09T13:34:34.981Z,5.03
2018-07-09T13:39:38.029Z,4.40
2018-07-09T13:44:41.069Z,3.60
2018-07-09T13:49:44.120Z,3.57
2018-07-09T13:54:47.173Z,2.83
2018-07-09T13:59:50.221Z,4.33
2018-07-09T14:04:53.268Z,5.47
2018-07-09T14:09:56.321Z,4.67
2018-07-09T14:14:59.360Z,3.13
2018-07-09T14:20:24.037Z,2.90
2018-07-09T14:25:27.086Z,2.60
2018-07-09T14:30:31.880Z,2.60
2018-07-09T14:35:35.090Z,2.70
2018-07-09T14:40:38.148Z,5.07
2018-07-09T14:45:41.196Z,3.13
2018-07-09T14:50:44.279Z,2.80
2018-07-09T14:55:47.308Z,3.43
2018-07-09T15:00:50.360Z,2.47
2018-07-09T15:05:53.434Z,3.10
2018-07-09T15:10:56.500Z,4.53
2018-07-09T15:15:59.572Z,3.77
2018-07-09T15:21:02.696Z,3.30
2018-07-09T15:26:05.703Z,4.03
2018-07-09T15:31:08.765Z,2.97
2018-07-09T15:36:11.845Z,3.37
2018-07-09T15:41:14.919Z,3.57
2018-07-09T15:46:17.993Z,3.00
2018-07-09T15:51:22.102Z,3.47
2018-07-09T15:56:25.771Z,2.80
2018-07-09T16:01:29.257Z,3.60
2018-07-09T16:06:32.328Z,3.70
2018-07-09T16:11:35.649Z,2.60
2018-07-09T16:16:38.718Z,2.47
2018-07-09T16:21:41.841Z,2.43
2018-07-09T16:26:44.953Z,2.80
2018-07-09T16:31:48.014Z,4.67
2018-07-09T16:36:51.074Z,4.40
2018-07-09T16:41:54.137Z,2.37
2018-07-09T16:46:57.209Z,3.77
2018-07-09T16:52:00.233Z,3.33
2018-07-09T16:57:03.289Z,2.50
2018-07-09T17:02:06.651Z,3.10
2018-07-09T17:07:09.700Z,3.37
2018-07-09T17:12:12.753Z,3.90
2018-07-09T17:17:15.895Z,4.03
2018-07-09T17:22:18.997Z,4.73
2018-07-09T17:27:23.120Z,2.43
2018-07-09T17:32:26.307Z,3.43
2018-07-09T17:37:29.320Z,2.30
2018-07-09T17:42:32.417Z,1.83
2018-07-09T17:47:35.498Z,1.57
2018-07-09T17:52:38.549Z,1.97
2018-07-09T17:57:41.641Z,7.30
2018-07-09T18:02:44.733Z,5.93
2018-07-09T18:07:47.757Z,3.30
2018-07-09T18:12:50.830Z,3.80
2018-07-09T18:17:53.941Z,2.23
2018-07-09T18:22:57.034Z,1.90
2018-07-09T18:28:00.102Z,3.70
2018-07-09T18:33:03.203Z,2.57
2018-07-09T18:38:06.352Z,2.90
2018-07-09T18:43:09.397Z,3.77
2018-07-09T18:48:16.238Z,3.07
2018-07-09T18:53:19.351Z,1.93
2018-07-09T18:58:23.651Z,5.03
2018-07-09T19:03:26.661Z,1.83
2018-07-09T19:08:29.714Z,4.07
2018-07-09T19:13:32.896Z,3.50
2018-07-09T19:18:47.334Z,2.53
2018-07-09T19:23:49.544Z,1.53
2018-07-09T19:28:51.847Z,2.13
2018-07-09T19:33:54.022Z,2.57
2018-07-09T19:38:56.201Z,1.73
2018-07-09T19:43:58.364Z,3.03
2018-07-09T19:49:01.477Z,5.13
2018-07-09T19:54:03.646Z,2.67
2018-07-09T19:59:05.833Z,2.43
2018-07-09T20:04:07.985Z,4.03
2018-07-09T20:09:15.621Z,3.67
2018-07-09T20:16:27.005Z,6.70
2018-07-09T20:21:29.869Z,7.30
2018-07-09T20:26:32.025Z,4.77
2018-07-09T20:31:34.172Z,7.33
2018-07-09T20:36:36.321Z,5.77
2018-07-09T20:41:38.462Z,4.70
2018-07-09T20:46:40.609Z,4.40
2018-07-09T20:51:42.761Z,4.47
2018-07-09T20:56:44.901Z,5.90
2018-07-09T21:01:47.049Z,3.70
2018-07-09T21:06:49.189Z,3.60
2018-07-09T21:11:51.333Z,7.67
2018-07-09T21:16:53.484Z,6.13
2018-07-09T21:21:55.686Z,5.13
2018-07-09T21:26:57.787Z,9.13
2018-07-09T21:31:59.953Z,5.93
2018-07-09T21:37:02.116Z,8.50
2018-07-09T21:42:04.273Z,4.80
2018-07-09T21:47:06.429Z,3.23
2018-07-09T21:52:08.577Z,5.77
2018-07-09T21:57:10.757Z,5.77
2018-07-09T22:02:12.925Z,3.87
2018-07-09T22:07:15.070Z,5.37
2018-07-09T22:12:17.217Z,4.97
2018-07-09T22:17:19.360Z,4.93
2018-07-09T22:22:21.508Z,2.57
2018-07-09T22:27:23.661Z,6.33
2018-07-09T22:32:26.708Z,5.97
2018-07-09T22:37:29.750Z,5.70
2018-07-09T22:42:32.802Z,5.00
2018-07-09T22:47:35.852Z,7.07
2018-07-09T22:52:38.937Z,4.87
2018-07-09T22:57:41.997Z,4.67
2018-07-09T23:02:46.661Z,4.47
2018-07-09T23:07:49.705Z,11.67
2018-07-09T23:13:19.260Z,4.40
2018-07-09T23:18:34.101Z,4.60
2018-07-09T23:23:36.250Z,7.80
2018-07-09T23:28:38.401Z,7.40
2018-07-09T23:33:40.549Z,9.40
2018-07-09T23:38:42.692Z,4.20
2018-07-09T23:43:44.834Z,6.77
2018-07-09T23:48:46.981Z,3.57
2018-07-09T23:53:49.128Z,7.83
2018-07-09T23:59:29.416Z,6.07
